Terminal Aerodrome Forecast
Issued by NWS La Crosse, WI

Home | Current Version | Previous Version | Text Only | Print | Product List | Glossary On
Versions: 1 2 3 4 5 6 7 8 9 10 11 12 13 14 15 16 17 18 19 20 21
000
FTUS43 KARX 260520
TAFRST
TAF
KRST 260520Z 2606/2706 06009KT 2SM BR OVC003
     FM260900 04007KT 1SM BR OVC003
     FM261700 02007KT 3SM BR OVC003
     FM262100 35007KT 6SM BR OVC006=

USA.gov is the U.S. government's official web portal to all federal, state and local government web resources and services.